sensor_id;sensor_type;location;lat;lon;timestamp;P1;durP1;ratioP1;P2;durP2;ratioP2
1577;SDS011;57623;53.608;10.004;2023-06-22T00:01:26;5.90;;;5.50;;
1577;SDS011;57623;53.608;10.004;2023-06-22T00:03:54;6.23;;;5.63;;
1577;SDS011;57623;53.608;10.004;2023-06-22T00:06:22;6.33;;;5.83;;
1577;SDS011;57623;53.608;10.004;2023-06-22T00:08:50;5.73;;;5.33;;
1577;SDS011;57623;53.608;10.004;2023-06-22T00:11:18;5.60;;;5.20;;
1577;SDS011;57623;53.608;10.004;2023-06-22T00:13:47;5.80;;;5.20;;
1577;SDS011;57623;53.608;10.004;2023-06-22T00:16:17;5.70;;;5.30;;
1577;SDS011;57623;53.608;10.004;2023-06-22T00:18:45;5.73;;;5.33;;
1577;SDS011;57623;53.608;10.004;2023-06-22T00:21:15;5.50;;;5.10;;
1577;SDS011;57623;53.608;10.004;2023-06-22T00:23:43;6.93;;;5.43;;
1577;SDS011;57623;53.608;10.004;2023-06-22T00:26:10;6.47;;;5.97;;
1577;SDS011;57623;53.608;10.004;2023-06-22T00:28:39;5.40;;;5.00;;
1577;SDS011;57623;53.608;10.004;2023-06-22T00:31:08;6.73;;;5.90;;
1577;SDS011;57623;53.608;10.004;2023-06-22T00:33:36;5.73;;;5.23;;
1577;SDS011;57623;53.608;10.004;2023-06-22T00:36:04;5.33;;;4.93;;
1577;SDS011;57623;53.608;10.004;2023-06-22T00:38:34;5.33;;;4.97;;
1577;SDS011;57623;53.608;10.004;2023-06-22T00:41:06;5.77;;;5.27;;
1577;SDS011;57623;53.608;10.004;2023-06-22T00:43:34;6.13;;;5.63;;
1577;SDS011;57623;53.608;10.004;2023-06-22T00:46:02;6.20;;;5.20;;
1577;SDS011;57623;53.608;10.004;2023-06-22T00:48:32;5.60;;;5.20;;
1577;SDS011;57623;53.608;10.004;2023-06-22T00:51:00;5.70;;;5.30;;
1577;SDS011;57623;53.608;10.004;2023-06-22T00:53:29;5.80;;;5.30;;
1577;SDS011;57623;53.608;10.004;2023-06-22T00:56:01;5.73;;;5.20;;
1577;SDS011;57623;53.608;10.004;2023-06-22T00:58:29;6.80;;;4.53;;
1577;SDS011;57623;53.608;10.004;2023-06-22T01:00:58;5.00;;;4.60;;
1577;SDS011;57623;53.608;10.004;2023-06-22T01:03:26;5.60;;;5.10;;
1577;SDS011;57623;53.608;10.004;2023-06-22T01:05:58;5.43;;;5.03;;
1577;SDS011;57623;53.608;10.004;2023-06-22T01:08:31;5.70;;;5.20;;
1577;SDS011;57623;53.608;10.004;2023-06-22T01:11:09;6.07;;;4.97;;
1577;SDS011;57623;53.608;10.004;2023-06-22T01:13:46;6.00;;;5.50;;
1577;SDS011;57623;53.608;10.004;2023-06-22T01:16:22;6.20;;;5.70;;
1577;SDS011;57623;53.608;10.004;2023-06-22T01:18:54;6.77;;;6.17;;
1577;SDS011;57623;53.608;10.004;2023-06-22T01:21:27;5.83;;;5.33;;
1577;SDS011;57623;53.608;10.004;2023-06-22T01:24:01;5.50;;;5.10;;
1577;SDS011;57623;53.608;10.004;2023-06-22T01:26:43;6.07;;;5.57;;
1577;SDS011;57623;53.608;10.004;2023-06-22T01:29:22;5.40;;;5.00;;
1577;SDS011;57623;53.608;10.004;2023-06-22T01:31:54;6.53;;;5.80;;
1577;SDS011;57623;53.608;10.004;2023-06-22T01:34:23;6.47;;;5.97;;
1577;SDS011;57623;53.608;10.004;2023-06-22T01:36:52;6.50;;;6.00;;
1577;SDS011;57623;53.608;10.004;2023-06-22T01:39:20;6.20;;;5.70;;
1577;SDS011;57623;53.608;10.004;2023-06-22T01:41:49;6.53;;;6.03;;
1577;SDS011;57623;53.608;10.004;2023-06-22T01:44:17;6.07;;;5.67;;
1577;SDS011;57623;53.608;10.004;2023-06-22T01:46:47;6.47;;;5.97;;
1577;SDS011;57623;53.608;10.004;2023-06-22T01:49:19;6.17;;;5.67;;
1577;SDS011;57623;53.608;10.004;2023-06-22T01:51:47;6.67;;;6.07;;
1577;SDS011;57623;53.608;10.004;2023-06-22T01:54:15;6.30;;;5.80;;
1577;SDS011;57623;53.608;10.004;2023-06-22T01:56:43;5.70;;;5.30;;
1577;SDS011;57623;53.608;10.004;2023-06-22T01:59:12;6.63;;;6.03;;
1577;SDS011;57623;53.608;10.004;2023-06-22T02:01:47;6.37;;;5.87;;
1577;SDS011;57623;53.608;10.004;2023-06-22T02:04:23;6.10;;;5.70;;
1577;SDS011;57623;53.608;10.004;2023-06-22T02:06:55;5.33;;;5.03;;
1577;SDS011;57623;53.608;10.004;2023-06-22T02:09:26;6.03;;;5.60;;
1577;SDS011;57623;53.608;10.004;2023-06-22T02:11:57;6.60;;;5.90;;
1577;SDS011;57623;53.608;10.004;2023-06-22T02:14:27;6.50;;;5.90;;
1577;SDS011;57623;53.608;10.004;2023-06-22T02:16:57;6.10;;;5.60;;
1577;SDS011;57623;53.608;10.004;2023-06-22T02:19:26;6.20;;;5.70;;
1577;SDS011;57623;53.608;10.004;2023-06-22T02:21:59;6.03;;;5.63;;
1577;SDS011;57623;53.608;10.004;2023-06-22T02:24:27;6.20;;;5.70;;
1577;SDS011;57623;53.608;10.004;2023-06-22T02:26:57;7.07;;;6.40;;
1577;SDS011;57623;53.608;10.004;2023-06-22T02:29:25;7.00;;;6.47;;
1577;SDS011;57623;53.608;10.004;2023-06-22T02:31:54;7.13;;;6.63;;
1577;SDS011;57623;53.608;10.004;2023-06-22T02:34:23;6.90;;;6.30;;
1577;SDS011;57623;53.608;10.004;2023-06-22T02:36:51;7.13;;;6.60;;
1577;SDS011;57623;53.608;10.004;2023-06-22T02:39:20;6.50;;;6.00;;
1577;SDS011;57623;53.608;10.004;2023-06-22T02:41:49;6.27;;;5.77;;
1577;SDS011;57623;53.608;10.004;2023-06-22T02:44:18;6.93;;;6.43;;
1577;SDS011;57623;53.608;10.004;2023-06-22T02:46:47;7.17;;;6.50;;
1577;SDS011;57623;53.608;10.004;2023-06-22T02:49:15;7.70;;;7.10;;
1577;SDS011;57623;53.608;10.004;2023-06-22T02:51:46;7.60;;;6.90;;
1577;SDS011;57623;53.608;10.004;2023-06-22T02:54:15;7.20;;;6.60;;
1577;SDS011;57623;53.608;10.004;2023-06-22T02:56:43;6.97;;;6.33;;
1577;SDS011;57623;53.608;10.004;2023-06-22T02:59:11;7.50;;;6.90;;
1577;SDS011;57623;53.608;10.004;2023-06-22T03:01:39;7.63;;;7.03;;
1577;SDS011;57623;53.608;10.004;2023-06-22T03:04:08;8.33;;;7.63;;
1577;SDS011;57623;53.608;10.004;2023-06-22T03:06:36;8.57;;;7.83;;
1577;SDS011;57623;53.608;10.004;2023-06-22T03:09:09;7.33;;;6.70;;
1577;SDS011;57623;53.608;10.004;2023-06-22T03:11:37;7.70;;;7.10;;
1577;SDS011;57623;53.608;10.004;2023-06-22T03:14:05;7.13;;;6.43;;
1577;SDS011;57623;53.608;10.004;2023-06-22T03:16:33;7.70;;;7.00;;
1577;SDS011;57623;53.608;10.004;2023-06-22T03:19:01;7.87;;;7.20;;
1577;SDS011;57623;53.608;10.004;2023-06-22T03:21:29;8.30;;;7.57;;
1577;SDS011;57623;53.608;10.004;2023-06-22T03:23:58;8.37;;;7.77;;
1577;SDS011;57623;53.608;10.004;2023-06-22T03:26:27;7.93;;;7.33;;
1577;SDS011;57623;53.608;10.004;2023-06-22T03:28:56;7.90;;;7.27;;
1577;SDS011;57623;53.608;10.004;2023-06-22T03:31:24;9.37;;;8.57;;
1577;SDS011;57623;53.608;10.004;2023-06-22T03:33:52;9.33;;;8.47;;
1577;SDS011;57623;53.608;10.004;2023-06-22T03:36:20;8.10;;;7.40;;
1577;SDS011;57623;53.608;10.004;2023-06-22T03:38:49;8.80;;;8.10;;
1577;SDS011;57623;53.608;10.004;2023-06-22T03:41:17;8.10;;;7.40;;
1577;SDS011;57623;53.608;10.004;2023-06-22T03:43:46;8.57;;;7.90;;
1577;SDS011;57623;53.608;10.004;2023-06-22T03:46:14;8.43;;;7.63;;
1577;SDS011;57623;53.608;10.004;2023-06-22T03:48:43;8.93;;;8.27;;
1577;SDS011;57623;53.608;10.004;2023-06-22T03:51:11;8.70;;;7.90;;
1577;SDS011;57623;53.608;10.004;2023-06-22T03:53:38;8.10;;;7.40;;
1577;SDS011;57623;53.608;10.004;2023-06-22T03:56:06;7.67;;;7.07;;
1577;SDS011;57623;53.608;10.004;2023-06-22T03:58:34;8.53;;;7.83;;
1577;SDS011;57623;53.608;10.004;2023-06-22T04:01:10;8.87;;;8.07;;
1577;SDS011;57623;53.608;10.004;2023-06-22T04:03:38;8.27;;;7.50;;
1577;SDS011;57623;53.608;10.004;2023-06-22T04:06:06;9.03;;;8.23;;
1577;SDS011;57623;53.608;10.004;2023-06-22T04:08:35;8.70;;;7.90;;
1577;SDS011;57623;53.608;10.004;2023-06-22T04:11:03;8.60;;;7.80;;
1577;SDS011;57623;53.608;10.004;2023-06-22T04:13:31;8.40;;;7.70;;
1577;SDS011;57623;53.608;10.004;2023-06-22T04:15:59;9.17;;;8.37;;
1577;SDS011;57623;53.608;10.004;2023-06-22T04:18:29;8.50;;;7.80;;
1577;SDS011;57623;53.608;10.004;2023-06-22T04:20:57;7.70;;;7.07;;
1577;SDS011;57623;53.608;10.004;2023-06-22T04:23:25;8.37;;;7.67;;
1577;SDS011;57623;53.608;10.004;2023-06-22T04:25:53;8.13;;;7.43;;
1577;SDS011;57623;53.608;10.004;2023-06-22T04:28:22;8.00;;;7.30;;
1577;SDS011;57623;53.608;10.004;2023-06-22T04:30:53;7.17;;;6.60;;
1577;SDS011;57623;53.608;10.004;2023-06-22T04:33:24;7.27;;;6.67;;
1577;SDS011;57623;53.608;10.004;2023-06-22T04:35:53;7.30;;;6.60;;
1577;SDS011;57623;53.608;10.004;2023-06-22T04:38:23;7.73;;;6.97;;
1577;SDS011;57623;53.608;10.004;2023-06-22T04:40:52;7.60;;;6.90;;
1577;SDS011;57623;53.608;10.004;2023-06-22T04:43:20;8.17;;;7.33;;
1577;SDS011;57623;53.608;10.004;2023-06-22T04:45:48;6.80;;;6.30;;
1577;SDS011;57623;53.608;10.004;2023-06-22T04:48:19;7.70;;;7.00;;
1577;SDS011;57623;53.608;10.004;2023-06-22T04:50:47;7.90;;;7.30;;
1577;SDS011;57623;53.608;10.004;2023-06-22T04:53:16;7.73;;;7.13;;
1577;SDS011;57623;53.608;10.004;2023-06-22T04:55:44;8.10;;;7.03;;
1577;SDS011;57623;53.608;10.004;2023-06-22T04:58:15;7.00;;;6.50;;
1577;SDS011;57623;53.608;10.004;2023-06-22T05:00:46;7.27;;;6.67;;
1577;SDS011;57623;53.608;10.004;2023-06-22T05:03:17;8.10;;;7.43;;
1577;SDS011;57623;53.608;10.004;2023-06-22T05:05:46;7.60;;;6.90;;
1577;SDS011;57623;53.608;10.004;2023-06-22T05:08:15;7.50;;;6.90;;
1577;SDS011;57623;53.608;10.004;2023-06-22T05:10:44;8.13;;;7.40;;
1577;SDS011;57623;53.608;10.004;2023-06-22T05:13:30;7.60;;;6.83;;
1577;SDS011;57623;53.608;10.004;2023-06-22T05:15:59;7.63;;;6.93;;
1577;SDS011;57623;53.608;10.004;2023-06-22T05:18:29;8.00;;;7.30;;
1577;SDS011;57623;53.608;10.004;2023-06-22T05:20:58;6.53;;;5.93;;
1577;SDS011;57623;53.608;10.004;2023-06-22T05:23:28;6.87;;;6.27;;
1577;SDS011;57623;53.608;10.004;2023-06-22T05:25:56;6.17;;;5.67;;
1577;SDS011;57623;53.608;10.004;2023-06-22T05:28:24;5.90;;;5.50;;
1577;SDS011;57623;53.608;10.004;2023-06-22T05:30:52;5.93;;;5.33;;
1577;SDS011;57623;53.608;10.004;2023-06-22T05:33:20;5.70;;;5.20;;
1577;SDS011;57623;53.608;10.004;2023-06-22T05:35:48;5.43;;;4.93;;
1577;SDS011;57623;53.608;10.004;2023-06-22T05:38:16;4.90;;;4.50;;
1577;SDS011;57623;53.608;10.004;2023-06-22T05:40:46;5.40;;;4.90;;
1577;SDS011;57623;53.608;10.004;2023-06-22T05:43:14;4.40;;;4.10;;
1577;SDS011;57623;53.608;10.004;2023-06-22T05:45:42;6.67;;;4.47;;
1577;SDS011;57623;53.608;10.004;2023-06-22T05:48:10;4.27;;;3.87;;
1577;SDS011;57623;53.608;10.004;2023-06-22T05:50:38;4.63;;;4.23;;
1577;SDS011;57623;53.608;10.004;2023-06-22T05:53:06;3.90;;;3.60;;
1577;SDS011;57623;53.608;10.004;2023-06-22T05:55:34;4.03;;;3.73;;
1577;SDS011;57623;53.608;10.004;2023-06-22T05:58:04;4.57;;;3.90;;
1577;SDS011;57623;53.608;10.004;2023-06-22T06:00:32;3.90;;;3.60;;
1577;SDS011;57623;53.608;10.004;2023-06-22T06:03:00;4.47;;;4.07;;
1577;SDS011;57623;53.608;10.004;2023-06-22T06:05:30;3.83;;;3.53;;
1577;SDS011;57623;53.608;10.004;2023-06-22T06:07:58;4.47;;;4.07;;
1577;SDS011;57623;53.608;10.004;2023-06-22T06:10:26;4.23;;;3.67;;
1577;SDS011;57623;53.608;10.004;2023-06-22T06:12:56;4.20;;;3.90;;
1577;SDS011;57623;53.608;10.004;2023-06-22T06:15:26;4.57;;;4.17;;
1577;SDS011;57623;53.608;10.004;2023-06-22T06:17:53;4.10;;;3.70;;
1577;SDS011;57623;53.608;10.004;2023-06-22T06:20:22;4.20;;;3.80;;
1577;SDS011;57623;53.608;10.004;2023-06-22T06:22:52;4.70;;;4.30;;
1577;SDS011;57623;53.608;10.004;2023-06-22T06:25:20;3.80;;;3.50;;
1577;SDS011;57623;53.608;10.004;2023-06-22T06:27:48;4.53;;;3.90;;
1577;SDS011;57623;53.608;10.004;2023-06-22T06:30:18;3.93;;;3.60;;
1577;SDS011;57623;53.608;10.004;2023-06-22T06:32:48;4.80;;;4.03;;
1577;SDS011;57623;53.608;10.004;2023-06-22T06:35:16;4.70;;;4.20;;
1577;SDS011;57623;53.608;10.004;2023-06-22T06:37:46;4.30;;;3.90;;
1577;SDS011;57623;53.608;10.004;2023-06-22T06:40:16;3.90;;;3.57;;
1577;SDS011;57623;53.608;10.004;2023-06-22T06:42:46;4.00;;;3.60;;
1577;SDS011;57623;53.608;10.004;2023-06-22T06:45:15;3.97;;;3.67;;
1577;SDS011;57623;53.608;10.004;2023-06-22T06:47:45;4.40;;;4.00;;
1577;SDS011;57623;53.608;10.004;2023-06-22T06:50:15;3.90;;;3.60;;
1577;SDS011;57623;53.608;10.004;2023-06-22T06:52:43;4.23;;;3.93;;
1577;SDS011;57623;53.608;10.004;2023-06-22T06:55:11;4.30;;;3.90;;
1577;SDS011;57623;53.608;10.004;2023-06-22T06:57:40;3.90;;;3.70;;
1577;SDS011;57623;53.608;10.004;2023-06-22T07:00:09;4.00;;;3.70;;
1577;SDS011;57623;53.608;10.004;2023-06-22T07:02:40;3.90;;;3.60;;
1577;SDS011;57623;53.608;10.004;2023-06-22T07:05:10;3.50;;;3.20;;
1577;SDS011;57623;53.608;10.004;2023-06-22T07:07:40;4.20;;;3.80;;
1577;SDS011;57623;53.608;10.004;2023-06-22T07:10:09;3.77;;;3.47;;
1577;SDS011;57623;53.608;10.004;2023-06-22T07:12:38;4.20;;;3.90;;
1577;SDS011;57623;53.608;10.004;2023-06-22T07:15:06;4.13;;;3.80;;
1577;SDS011;57623;53.608;10.004;2023-06-22T07:17:36;3.40;;;3.10;;
1577;SDS011;57623;53.608;10.004;2023-06-22T07:20:06;3.90;;;3.60;;
1577;SDS011;57623;53.608;10.004;2023-06-22T07:22:36;3.70;;;3.50;;
1577;SDS011;57623;53.608;10.004;2023-06-22T07:25:07;3.70;;;3.40;;
1577;SDS011;57623;53.608;10.004;2023-06-22T07:27:36;3.97;;;3.67;;
1577;SDS011;57623;53.608;10.004;2023-06-22T07:30:06;3.90;;;3.60;;
1577;SDS011;57623;53.608;10.004;2023-06-22T07:32:35;4.00;;;3.70;;
1577;SDS011;57623;53.608;10.004;2023-06-22T07:35:04;3.70;;;3.40;;
1577;SDS011;57623;53.608;10.004;2023-06-22T07:37:32;4.10;;;3.80;;
1577;SDS011;57623;53.608;10.004;2023-06-22T07:40:01;4.57;;;4.10;;
1577;SDS011;57623;53.608;10.004;2023-06-22T07:42:34;4.30;;;4.00;;
1577;SDS011;57623;53.608;10.004;2023-06-22T07:45:02;3.77;;;3.40;;
1577;SDS011;57623;53.608;10.004;2023-06-22T07:47:32;4.20;;;3.60;;
1577;SDS011;57623;53.608;10.004;2023-06-22T07:50:02;4.27;;;3.87;;
1577;SDS011;57623;53.608;10.004;2023-06-22T07:52:31;4.03;;;3.73;;
1577;SDS011;57623;53.608;10.004;2023-06-22T07:55:01;4.67;;;3.90;;
1577;SDS011;57623;53.608;10.004;2023-06-22T07:57:29;4.17;;;3.87;;
1577;SDS011;57623;53.608;10.004;2023-06-22T08:00:02;4.17;;;3.87;;
1577;SDS011;57623;53.608;10.004;2023-06-22T08:02:38;4.93;;;4.33;;
1577;SDS011;57623;53.608;10.004;2023-06-22T08:05:07;3.90;;;3.50;;
1577;SDS011;57623;53.608;10.004;2023-06-22T08:07:55;3.90;;;3.60;;
1577;SDS011;57623;53.608;10.004;2023-06-22T08:10:23;4.43;;;4.00;;
1577;SDS011;57623;53.608;10.004;2023-06-22T08:12:52;3.70;;;3.37;;
1577;SDS011;57623;53.608;10.004;2023-06-22T08:15:21;3.87;;;3.57;;
1577;SDS011;57623;53.608;10.004;2023-06-22T08:17:49;3.87;;;3.30;;
1577;SDS011;57623;53.608;10.004;2023-06-22T08:20:19;3.87;;;3.47;;
1577;SDS011;57623;53.608;10.004;2023-06-22T08:22:47;4.10;;;3.80;;
1577;SDS011;57623;53.608;10.004;2023-06-22T08:25:15;4.00;;;3.67;;
1577;SDS011;57623;53.608;10.004;2023-06-22T08:27:44;3.60;;;3.30;;
1577;SDS011;57623;53.608;10.004;2023-06-22T08:30:13;3.80;;;3.50;;
1577;SDS011;57623;53.608;10.004;2023-06-22T08:32:43;3.50;;;3.20;;
1577;SDS011;57623;53.608;10.004;2023-06-22T08:35:11;5.87;;;3.73;;
1577;SDS011;57623;53.608;10.004;2023-06-22T08:37:39;3.80;;;3.50;;
1577;SDS011;57623;53.608;10.004;2023-06-22T08:40:08;3.57;;;3.27;;
1577;SDS011;57623;53.608;10.004;2023-06-22T08:42:37;4.10;;;3.53;;
1577;SDS011;57623;53.608;10.004;2023-06-22T08:45:08;4.47;;;4.10;;
1577;SDS011;57623;53.608;10.004;2023-06-22T08:47:37;4.17;;;3.77;;
1577;SDS011;57623;53.608;10.004;2023-06-22T08:50:07;4.30;;;3.97;;
1577;SDS011;57623;53.608;10.004;2023-06-22T08:52:36;3.83;;;3.53;;
1577;SDS011;57623;53.608;10.004;2023-06-22T08:55:04;4.37;;;3.90;;
1577;SDS011;57623;53.608;10.004;2023-06-22T08:57:33;3.37;;;3.07;;
1577;SDS011;57623;53.608;10.004;2023-06-22T09:00:03;3.30;;;3.00;;
1577;SDS011;57623;53.608;10.004;2023-06-22T09:02:37;4.00;;;3.50;;
1577;SDS011;57623;53.608;10.004;2023-06-22T09:05:08;3.43;;;3.13;;
1577;SDS011;57623;53.608;10.004;2023-06-22T09:07:37;3.83;;;3.33;;
1577;SDS011;57623;53.608;10.004;2023-06-22T09:10:05;4.00;;;3.70;;
1577;SDS011;57623;53.608;10.004;2023-06-22T09:12:35;3.23;;;3.00;;
1577;SDS011;57623;53.608;10.004;2023-06-22T09:15:04;3.67;;;3.33;;
1577;SDS011;57623;53.608;10.004;2023-06-22T09:17:38;5.77;;;3.40;;
1577;SDS011;57623;53.608;10.004;2023-06-22T09:20:10;3.80;;;3.50;;
1577;SDS011;57623;53.608;10.004;2023-06-22T09:22:38;3.70;;;3.43;;
1577;SDS011;57623;53.608;10.004;2023-06-22T09:25:06;4.00;;;3.70;;
1577;SDS011;57623;53.608;10.004;2023-06-22T09:27:35;4.50;;;4.10;;
1577;SDS011;57623;53.608;10.004;2023-06-22T09:30:03;4.67;;;4.07;;
1577;SDS011;57623;53.608;10.004;2023-06-22T09:32:32;3.50;;;3.20;;
1577;SDS011;57623;53.608;10.004;2023-06-22T09:35:02;3.53;;;3.23;;
1577;SDS011;57623;53.608;10.004;2023-06-22T09:37:33;4.30;;;4.00;;
1577;SDS011;57623;53.608;10.004;2023-06-22T09:40:02;4.30;;;4.00;;
1577;SDS011;57623;53.608;10.004;2023-06-22T09:42:34;4.10;;;3.80;;
1577;SDS011;57623;53.608;10.004;2023-06-22T09:45:03;4.00;;;3.70;;
1577;SDS011;57623;53.608;10.004;2023-06-22T09:47:31;4.07;;;3.67;;
1577;SDS011;57623;53.608;10.004;2023-06-22T09:49:59;3.53;;;3.23;;
1577;SDS011;57623;53.608;10.004;2023-06-22T09:52:27;4.30;;;3.90;;
1577;SDS011;57623;53.608;10.004;2023-06-22T09:55:14;3.97;;;3.67;;
1577;SDS011;57623;53.608;10.004;2023-06-22T09:57:43;3.60;;;3.40;;
1577;SDS011;57623;53.608;10.004;2023-06-22T10:00:11;4.33;;;3.60;;
1577;SDS011;57623;53.608;10.004;2023-06-22T10:02:41;4.03;;;3.73;;
1577;SDS011;57623;53.608;10.004;2023-06-22T10:05:10;4.07;;;3.77;;
1577;SDS011;57623;53.608;10.004;2023-06-22T10:07:38;3.97;;;3.63;;
1577;SDS011;57623;53.608;10.004;2023-06-22T10:10:09;3.57;;;3.37;;
1577;SDS011;57623;53.608;10.004;2023-06-22T10:12:40;4.40;;;4.10;;
1577;SDS011;57623;53.608;10.004;2023-06-22T10:15:10;5.07;;;4.20;;
1577;SDS011;57623;53.608;10.004;2023-06-22T10:17:38;4.40;;;4.00;;
1577;SDS011;57623;53.608;10.004;2023-06-22T10:20:07;3.70;;;3.50;;
1577;SDS011;57623;53.608;10.004;2023-06-22T10:22:38;3.97;;;3.40;;
1577;SDS011;57623;53.608;10.004;2023-06-22T10:25:07;3.63;;;3.43;;
1577;SDS011;57623;53.608;10.004;2023-06-22T10:27:36;3.50;;;3.30;;
1577;SDS011;57623;53.608;10.004;2023-06-22T10:30:08;4.57;;;4.17;;
1577;SDS011;57623;53.608;10.004;2023-06-22T10:32:39;3.67;;;3.37;;
1577;SDS011;57623;53.608;10.004;2023-06-22T10:35:08;4.30;;;3.87;;
1577;SDS011;57623;53.608;10.004;2023-06-22T10:37:37;4.57;;;4.17;;
1577;SDS011;57623;53.608;10.004;2023-06-22T10:40:05;4.27;;;3.90;;
1577;SDS011;57623;53.608;10.004;2023-06-22T10:42:34;4.20;;;3.90;;
1577;SDS011;57623;53.608;10.004;2023-06-22T10:45:02;4.90;;;4.50;;
1577;SDS011;57623;53.608;10.004;2023-06-22T10:47:32;4.10;;;3.80;;
1577;SDS011;57623;53.608;10.004;2023-06-22T10:50:00;4.23;;;3.93;;
1577;SDS011;57623;53.608;10.004;2023-06-22T10:52:28;4.70;;;4.17;;
1577;SDS011;57623;53.608;10.004;2023-06-22T10:54:57;4.03;;;3.70;;
1577;SDS011;57623;53.608;10.004;2023-06-22T10:57:25;4.40;;;4.10;;
1577;SDS011;57623;53.608;10.004;2023-06-22T10:59:53;4.53;;;4.07;;
1577;SDS011;57623;53.608;10.004;2023-06-22T11:02:21;4.20;;;3.90;;
1577;SDS011;57623;53.608;10.004;2023-06-22T11:04:50;4.10;;;3.90;;
1577;SDS011;57623;53.608;10.004;2023-06-22T11:07:18;5.53;;;4.57;;
1577;SDS011;57623;53.608;10.004;2023-06-22T11:09:46;4.43;;;4.03;;
1577;SDS011;57623;53.608;10.004;2023-06-22T11:12:14;5.10;;;4.70;;
1577;SDS011;57623;53.608;10.004;2023-06-22T11:14:42;4.70;;;4.40;;
1577;SDS011;57623;53.608;10.004;2023-06-22T11:17:10;4.30;;;4.00;;
1577;SDS011;57623;53.608;10.004;2023-06-22T11:19:38;5.13;;;4.73;;
1577;SDS011;57623;53.608;10.004;2023-06-22T11:22:08;4.93;;;4.63;;
1577;SDS011;57623;53.608;10.004;2023-06-22T11:24:36;4.53;;;4.13;;
1577;SDS011;57623;53.608;10.004;2023-06-22T11:27:04;5.10;;;4.70;;
1577;SDS011;57623;53.608;10.004;2023-06-22T11:29:32;4.40;;;4.10;;
1577;SDS011;57623;53.608;10.004;2023-06-22T11:32:20;5.37;;;4.97;;
1577;SDS011;57623;53.608;10.004;2023-06-22T11:34:48;4.87;;;4.47;;
1577;SDS011;57623;53.608;10.004;2023-06-22T11:37:18;5.10;;;4.60;;
1577;SDS011;57623;53.608;10.004;2023-06-22T11:39:46;4.83;;;4.53;;
1577;SDS011;57623;53.608;10.004;2023-06-22T11:42:18;5.40;;;5.00;;
1577;SDS011;57623;53.608;10.004;2023-06-22T11:44:46;5.27;;;4.90;;
1577;SDS011;57623;53.608;10.004;2023-06-22T11:47:14;5.20;;;4.90;;
1577;SDS011;57623;53.608;10.004;2023-06-22T11:49:42;5.27;;;4.90;;
1577;SDS011;57623;53.608;10.004;2023-06-22T11:52:10;4.97;;;4.60;;
1577;SDS011;57623;53.608;10.004;2023-06-22T11:54:39;5.50;;;5.10;;
1577;SDS011;57623;53.608;10.004;2023-06-22T11:57:07;5.67;;;5.27;;
1577;SDS011;57623;53.608;10.004;2023-06-22T11:59:35;6.23;;;4.93;;
1577;SDS011;57623;53.608;10.004;2023-06-22T12:02:03;5.17;;;4.80;;
1577;SDS011;57623;53.608;10.004;2023-06-22T12:04:33;5.63;;;5.33;;
1577;SDS011;57623;53.608;10.004;2023-06-22T12:07:01;6.20;;;5.80;;
1577;SDS011;57623;53.608;10.004;2023-06-22T12:09:29;5.80;;;5.40;;
1577;SDS011;57623;53.608;10.004;2023-06-22T12:11:59;5.53;;;5.07;;
1577;SDS011;57623;53.608;10.004;2023-06-22T12:14:27;5.23;;;4.93;;
1577;SDS011;57623;53.608;10.004;2023-06-22T12:16:57;5.30;;;4.43;;
1577;SDS011;57623;53.608;10.004;2023-06-22T12:19:25;5.20;;;4.80;;
1577;SDS011;57623;53.608;10.004;2023-06-22T12:21:53;5.43;;;4.93;;
1577;SDS011;57623;53.608;10.004;2023-06-22T12:24:21;5.10;;;4.53;;
1577;SDS011;57623;53.608;10.004;2023-06-22T12:26:49;5.30;;;4.90;;
1577;SDS011;57623;53.608;10.004;2023-06-22T12:29:22;4.57;;;4.27;;
1577;SDS011;57623;53.608;10.004;2023-06-22T12:31:50;5.73;;;5.33;;
1577;SDS011;57623;53.608;10.004;2023-06-22T12:34:18;5.00;;;4.70;;
1577;SDS011;57623;53.608;10.004;2023-06-22T12:36:46;5.20;;;4.70;;
1577;SDS011;57623;53.608;10.004;2023-06-22T12:39:14;5.10;;;4.80;;
1577;SDS011;57623;53.608;10.004;2023-06-22T12:41:42;5.07;;;4.60;;
1577;SDS011;57623;53.608;10.004;2023-06-22T12:44:10;6.10;;;5.50;;
1577;SDS011;57623;53.608;10.004;2023-06-22T12:46:40;5.90;;;5.50;;
1577;SDS011;57623;53.608;10.004;2023-06-22T12:49:08;5.30;;;5.00;;
1577;SDS011;57623;53.608;10.004;2023-06-22T12:51:39;5.70;;;5.30;;
1577;SDS011;57623;53.608;10.004;2023-06-22T12:54:07;5.47;;;5.07;;
1577;SDS011;57623;53.608;10.004;2023-06-22T12:56:36;5.00;;;4.70;;
1577;SDS011;57623;53.608;10.004;2023-06-22T12:59:05;5.40;;;5.10;;
1577;SDS011;57623;53.608;10.004;2023-06-22T13:01:33;5.60;;;5.20;;
1577;SDS011;57623;53.608;10.004;2023-06-22T13:04:02;5.43;;;5.03;;
1577;SDS011;57623;53.608;10.004;2023-06-22T13:06:31;5.10;;;4.70;;
1577;SDS011;57623;53.608;10.004;2023-06-22T13:08:59;5.67;;;5.37;;
1577;SDS011;57623;53.608;10.004;2023-06-22T13:11:30;5.70;;;5.30;;
1577;SDS011;57623;53.608;10.004;2023-06-22T13:13:58;5.53;;;5.13;;
1577;SDS011;57623;53.608;10.004;2023-06-22T13:16:26;5.73;;;5.43;;
1577;SDS011;57623;53.608;10.004;2023-06-22T13:18:54;5.97;;;5.57;;
1577;SDS011;57623;53.608;10.004;2023-06-22T13:21:23;6.60;;;6.10;;
1577;SDS011;57623;53.608;10.004;2023-06-22T13:23:51;6.20;;;5.70;;
1577;SDS011;57623;53.608;10.004;2023-06-22T13:26:20;5.63;;;5.23;;
1577;SDS011;57623;53.608;10.004;2023-06-22T13:28:48;6.33;;;5.93;;
1577;SDS011;57623;53.608;10.004;2023-06-22T13:31:16;5.77;;;5.47;;
1577;SDS011;57623;53.608;10.004;2023-06-22T13:33:44;6.23;;;5.70;;
1577;SDS011;57623;53.608;10.004;2023-06-22T13:36:14;6.03;;;5.53;;
1577;SDS011;57623;53.608;10.004;2023-06-22T13:38:44;6.30;;;5.90;;
1577;SDS011;57623;53.608;10.004;2023-06-22T13:41:13;5.73;;;5.33;;
1577;SDS011;57623;53.608;10.004;2023-06-22T13:43:41;6.07;;;5.70;;
1577;SDS011;57623;53.608;10.004;2023-06-22T13:46:09;6.20;;;5.80;;
1577;SDS011;57623;53.608;10.004;2023-06-22T13:48:37;6.13;;;5.70;;
1577;SDS011;57623;53.608;10.004;2023-06-22T13:51:05;6.30;;;5.80;;
1577;SDS011;57623;53.608;10.004;2023-06-22T13:53:33;5.73;;;5.33;;
1577;SDS011;57623;53.608;10.004;2023-06-22T13:56:03;6.23;;;5.67;;
1577;SDS011;57623;53.608;10.004;2023-06-22T13:58:31;6.10;;;5.70;;
1577;SDS011;57623;53.608;10.004;2023-06-22T14:00:59;6.30;;;5.70;;
1577;SDS011;57623;53.608;10.004;2023-06-22T14:03:27;6.27;;;5.77;;
1577;SDS011;57623;53.608;10.004;2023-06-22T14:05:55;6.20;;;5.80;;
1577;SDS011;57623;53.608;10.004;2023-06-22T14:08:24;5.83;;;5.47;;
1577;SDS011;57623;53.608;10.004;2023-06-22T14:11:09;6.27;;;5.87;;
1577;SDS011;57623;53.608;10.004;2023-06-22T14:13:37;6.30;;;5.90;;
1577;SDS011;57623;53.608;10.004;2023-06-22T14:16:08;6.20;;;5.80;;
1577;SDS011;57623;53.608;10.004;2023-06-22T14:18:36;10.87;;;5.93;;
1577;SDS011;57623;53.608;10.004;2023-06-22T14:21:04;5.87;;;5.47;;
1577;SDS011;57623;53.608;10.004;2023-06-22T14:23:32;6.37;;;5.90;;
1577;SDS011;57623;53.608;10.004;2023-06-22T14:26:00;5.93;;;5.50;;
1577;SDS011;57623;53.608;10.004;2023-06-22T14:28:29;6.27;;;5.87;;
1577;SDS011;57623;53.608;10.004;2023-06-22T14:30:57;6.23;;;5.70;;
1577;SDS011;57623;53.608;10.004;2023-06-22T14:33:25;5.63;;;5.33;;
1577;SDS011;57623;53.608;10.004;2023-06-22T14:35:53;6.20;;;5.80;;
1577;SDS011;57623;53.608;10.004;2023-06-22T14:38:21;6.13;;;5.73;;
1577;SDS011;57623;53.608;10.004;2023-06-22T14:40:49;6.20;;;5.80;;
1577;SDS011;57623;53.608;10.004;2023-06-22T14:43:42;6.37;;;5.97;;
1577;SDS011;57623;53.608;10.004;2023-06-22T14:46:12;5.93;;;5.53;;
1577;SDS011;57623;53.608;10.004;2023-06-22T14:48:41;6.30;;;5.80;;
1577;SDS011;57623;53.608;10.004;2023-06-22T14:51:09;6.83;;;6.33;;
1577;SDS011;57623;53.608;10.004;2023-06-22T14:53:43;6.30;;;5.70;;
1577;SDS011;57623;53.608;10.004;2023-06-22T14:56:12;6.30;;;5.90;;
1577;SDS011;57623;53.608;10.004;2023-06-22T14:58:43;5.77;;;5.47;;
1577;SDS011;57623;53.608;10.004;2023-06-22T15:01:13;7.53;;;6.47;;